UNR Ag. Experiment Farm, Sparks, Nevada Weather observations

Data are for 10 minute period ending at time listed.
 Day   Time   Solar   Ave.   Ave.  Ave.  Vector  Max.   Baro.   Total    
  of    of     Rad.   Air    Rel.  Wind   Wind   Wind  Press.  Precip.   
Year   Day            Temp.  Hum.  Speed  Dir.   Gust                    
2015   (PST)  Kw/m2    F      %     mph   deg.    mph    mb.     in.     
-------------------------------------------------------------------------
  57    7:50   0.14   37.5    60    3.1   146     4.1   868.6    0.00 
  57    8:00   0.17   39.0    58    3.1   168     4.4   868.7    0.00 
  57    8:10   0.20   41.2    53    1.9   149     4.6   868.7    0.00 
  57    8:20   0.21   42.6    49    1.7   358     3.5   868.8    0.00 
  57    8:30   0.26   42.7    51    2.9    16     6.5   868.9    0.00 
  57    8:40   0.29   43.2    51    5.5    34     8.3   868.8    0.00 
  57    8:50   0.32   43.6    50    3.9    26     6.9   868.8    0.00 
  57    9:00   0.34   44.0    49    2.8    28     6.4   868.8    0.00 
  57    9:10   0.36   46.0    46    1.5    13     3.7   868.6    0.00 
  57    9:20   0.39   45.7    45    1.6   291     5.5   868.5    0.00 
  57    9:30   0.41   45.1    47    1.8   302     6.0   868.3    0.00 
  57    9:40   0.44   46.1    47    3.7    47     9.3   868.0    0.00 
  57    9:50   0.46   45.8    47    5.2     4     9.6   868.0    0.00 
  57   10:00   0.49   46.4    46    5.1    52     9.3   867.9    0.00 
  57   10:10   0.51   46.0    46    4.4   346     8.8   867.9    0.00 
  57   10:20   0.53   47.0    45    5.3     4    10.1   868.0    0.00 
  57   10:30   0.55   47.1    44    4.6     6     9.5   867.9    0.00 
  57   10:40   0.55   47.7    43    5.7    48    11.3   867.9    0.00 
  57   10:50   0.59   48.5    41    7.1    43    14.5   867.7    0.00 
  57   11:00   0.61   48.1    42    6.7    32    11.8   867.6    0.00 
  57   11:10   0.62   48.2    41    7.2    13    15.2   867.3    0.00 
  57   11:20   0.63   48.6    40    8.2   356    13.2   867.3    0.00 
  57   11:30   0.64   48.8    39    5.3     8    11.4   867.3    0.00 
  57   11:40   0.65   49.2    38    3.9    52     9.5   867.1    0.00 
  57   11:50   0.66   49.5    38    7.6    39    11.9   867.0    0.00 
  57   12:00   0.66   49.8    37    7.3    21    11.5   866.8    0.00 
  57   12:10   0.66   49.6    37    7.3     1    15.7   866.5    0.00 
  57   12:20   0.66   49.6    36    4.1   343     9.0   866.2    0.00 
  57   12:30   0.66   49.9    36    6.1   337    12.3   866.0    0.00 
  57   12:40   0.67   49.9    35    4.0   356     9.5   865.8    0.00 
  57   12:50   0.66   50.9    34    3.2    25     8.4   865.8    0.00 
  57   13:00   0.65   51.5    33    4.4    27    11.0   865.6    0.00 
  57   13:10   0.65   51.7    33    6.1    27    11.7   865.5    0.00 
  57   13:20   0.64   52.1    32    5.5    21     9.3   865.4    0.00 
  57   13:30   0.63   51.6    33    5.2   347    11.5   865.1    0.00 
  57   13:40   0.62   52.3    32    4.3    65     8.7   864.8    0.00 
  57   13:50   0.61   52.1    32    2.2   279     6.6   864.6    0.00 
  57   14:00   0.60   53.3    31    7.0    50    13.4   864.6    0.00 
  57   14:10   0.59   53.2    30    3.1    56     7.0   864.5    0.00 
  57   14:20   0.56   53.0    30    6.7     9    12.3   864.4    0.00 
  57   14:30   0.54   53.3    30    6.3    35    10.8   864.3    0.00 
  57   14:40   0.52   53.0    29    4.6    23     8.0   864.3    0.00 
  57   14:50   0.50   53.3    28    5.8   324    10.8   864.0    0.00 
  57   15:00   0.48   53.1    28    5.6   308    11.0   863.8    0.00 
  57   15:10   0.46   53.4    27    2.9   280     5.9   863.8    0.00 
  57   15:20   0.43   53.0    27    5.2   326     9.1   863.6    0.00 
  57   15:30   0.41   53.4    26    5.5   281     9.7   863.6    0.00 
  57   15:40   0.38   53.8    25    4.6   274    12.1   863.6    0.00 
  57   15:50   0.36   53.3    26    5.9   306     9.6   863.6    0.00 
  57   16:00   0.33   53.2    26    7.0   302    13.8   863.6    0.00 
  57   16:10   0.30   52.8    26    6.2   336    10.6   863.6    0.00 
  57   16:20   0.27   52.6    26    8.8   341    14.8   863.5    0.00 
  57   16:30   0.24   52.2    26    7.0   346    12.2   863.3    0.00 
  57   16:40   0.21   52.0    27    8.1   344    12.8   863.3    0.00 
  57   16:50   0.12   51.3    25    7.9   358    12.1   863.1    0.00 
  57   17:00   0.08   50.6    27    6.5   356     9.8   863.0    0.00 
  57   17:10   0.09   50.1    28    6.9    17    10.2   862.8    0.00 
  57   17:20   0.10   50.1    28    7.8     4    11.2   862.7    0.00 
  57   17:30   0.06   49.0    32    6.8    16     9.5   862.7    0.00 
  57   17:40   0.01   48.2    33    7.1    23     9.9   862.5    0.00 
  57   17:50   0.01   46.8    35    6.4    10     8.9   862.6    0.00 
  57   18:00   0.00   46.3    36    6.5    12     8.6   862.7    0.00 
  57   18:10   0.00   45.7    38    5.6    11     9.0   862.8    0.00 
  57   18:20   0.00   45.0    39    3.8    11     5.3   862.9    0.00 
  57   18:30   0.00   45.9    37    3.9     8     4.9   863.0    0.00 
  57   18:40   0.00   46.7    35    4.9    14     6.2   862.8    0.00 
  57   18:50   0.00   45.4    37    4.0     8     4.7   862.6    0.00 
  57   19:00   0.00   43.6    41    2.5     0     3.7   862.5    0.00 
  57   19:10   0.00   38.7    49    3.2   190     3.7   862.5    0.00 
  57   19:20   0.00   40.1    48    1.6   218     2.6   862.4    0.00 
  57   19:30   0.00   40.8    46    2.6   181     4.2   862.3    0.00 
  57   19:40   0.00   39.8    50    2.1   181     4.1   862.2    0.00 
  57   19:50   0.00   39.5    52    2.3   238     3.9   862.1    0.00 
  57   20:00   0.00   40.1    49    2.4   277     3.8   862.2    0.00 
  57   20:10   0.00   36.6    56    2.3   119     4.7   862.3    0.00 
  57   20:20   0.00   35.2    63    3.7   150     4.9   862.1    0.00 
  57   20:30   0.00   37.6    57    3.6   159     4.8   861.9    0.00 
  57   20:40   0.00   38.1    56    1.8   182     3.7   861.8    0.00 
  57   20:50   0.00   39.2    54    2.3   259     3.1   861.8    0.00 
  57   21:00   0.00   40.7    50    1.6   268     2.5   861.8    0.00 
  57   21:10   0.00   40.2    51    1.3   323     1.9   861.7    0.00 
  57   21:20   0.00   39.9    53    1.1   334     1.8   861.8    0.00 
  57   21:30   0.00   39.2    57    1.6   193     3.2   861.7    0.00 
  57   21:40   0.00   37.8    60    3.4   168     3.9   861.5    0.00 
  57   21:50   0.00   38.6    59    1.2   177     3.3   861.4    0.00 
  57   22:00   0.00   39.5    57    0.4   188     1.6   861.2    0.00 
  57   22:10   0.00   39.9    56    0.6   220     0.9   861.0    0.00 
  57   22:20   0.00   39.9    56    1.3   216     1.6   860.9    0.00 
  57   22:30   0.00   40.2    54    1.1   199     1.8   860.8    0.00 
  57   22:40   0.00   40.0    55    0.8   269     2.0   860.8    0.00 
  57   22:50   0.00   39.6    56    0.4   235     1.7   860.7    0.00 
  57   23:00   0.00   40.4    51    0.0     0     0.0   860.7    0.00 
  57   23:10   0.00   40.2    53    0.4   230     1.1   860.5    0.00 
  57   23:20   0.00   40.6    52    0.1   230     0.7   860.5    0.00 
  57   23:30   0.00   40.6    50    0.1   230     1.4   860.2    0.00 
  57   23:40   0.00   39.6    57    1.9    34     3.1   860.2    0.00 
  57   23:50   0.00   38.6    62    1.1    53     2.0   860.1    0.00 
  58    0:00   0.00   38.4    64    1.1   341     2.3   860.1    0.00 
  58    0:10   0.00   37.9    66    0.7   200     1.5   860.1    0.00 
  58    0:20   0.00   38.2    66    1.9   147     4.5   860.0    0.00 
  58    0:30   0.00   37.3    64    2.6   179     4.3   859.9    0.00 
  58    0:40   0.00   38.5    59    3.1   178     4.2   859.7    0.00 
  58    0:50   0.00   38.7    59    1.1   120     1.8   859.7    0.00 
  58    1:00   0.00   36.4    67    0.8   267     3.0   859.8    0.00 
  58    1:10   0.00   37.0    67    0.2   285     1.2   859.7    0.00 
  58    1:20   0.00   36.2    68    0.1   310     0.8   859.7    0.00 
  58    1:30   0.00   37.1    67    0.4   310     1.5   859.6    0.00 
  58    1:40   0.00   37.0    70    0.4   164     1.5   859.6    0.00 
  58    1:50   0.00   37.1    71    0.0     0     0.0   859.6    0.00 
  58    2:00   0.00   36.6    73    0.6   219     1.8   859.6    0.00 
  58    2:10   0.00   36.3    72    0.9   220     1.2   859.6    0.00 
  58    2:20   0.00   36.7    67    2.5   189     3.4   859.5    0.00 
  58    2:30   0.00   37.5    66    2.2   178     3.0   859.4    0.00 
  58    2:40   0.00   37.6    65    3.0   185     3.9   859.2    0.00 
  58    2:50   0.00   37.3    63    3.3   203     4.2   859.0    0.00 
  58    3:00   0.00   37.8    60    3.4   201     3.9   858.9    0.00 
  58    3:10   0.00   37.6    61    3.3   194     4.2   858.8    0.00 
  58    3:20   0.00   37.9    60    1.7   146     3.0   858.6    0.00 
  58    3:30   0.00   38.2    60    1.5   144     2.3   858.6    0.00 
  58    3:40   0.00   37.0    64    0.0   142     0.9   858.6    0.00 
  58    3:50   0.00   36.0    67    0.9   142     1.6   858.5    0.00 
  58    4:00   0.00   35.6    67    0.0     0     0.0   858.4    0.00 
  58    4:10   0.00   36.0    65    0.2   221     1.0   858.3    0.00 
  58    4:20   0.00   35.6    65    0.1   220     0.6   858.2    0.00 
  58    4:30   0.00   34.8    64    0.5   106     1.7   858.3    0.00 
  58    4:40   0.00   31.8    71    0.6    52     1.3   858.2    0.00 
  58    4:50   0.00   30.8    74    0.9   209     3.5   858.3    0.00 
  58    5:00   0.00   30.1    80    1.4   186     3.0   858.3    0.00 
  58    5:10   0.00   31.4    78    1.4   168     3.4   858.2    0.00 
  58    5:20   0.00   31.1    78    3.2   165     3.8   858.2    0.00 
  58    5:30   0.00   30.7    77    2.7   136     3.7   858.1    0.00 
  58    5:40   0.00   31.2    77    0.3   118     1.7   858.0    0.00 
  58    5:50   0.00   30.3    77    0.4   131     2.0   858.0    0.00 
  58    6:00   0.00   30.5    78    0.6   132     1.9   858.1    0.00 
  58    6:10   0.00   29.5    79    1.9   128     3.2   858.1    0.00 
  58    6:20   0.00   30.6    78    1.6   138     3.1   858.0    0.00 
  58    6:30   0.00   29.5    77    1.0   139     1.8   857.9    0.00 
  58    6:40   0.00   28.0    81    0.3   139     1.4   857.8    0.00 
  58    6:50   0.01   29.0    82    1.3   227     2.7   857.8    0.00 
  58    7:00   0.03   29.9    81    0.9   157     2.7   857.8    0.00 
  58    7:10   0.04   29.8    82    1.7    88     3.0   857.7    0.00 
  58    7:20   0.09   31.3    82    0.8    84     2.0   857.7    0.00 
  58    7:30   0.11   34.2    79    0.9    84     1.7   857.7    0.00 
  58    7:40   0.12   36.2    71    2.4   234     3.3   857.8    0.00 

Return to Sparks, Nevada, UNR Ag Experiment Farm graphs page.


Western Regional Climate Center,wrcc@dri.edu